sensor_id;sensor_type;location;lat;lon;timestamp;temperature;humidity
14049;DHT22;7099;53.922;10.728;2022-07-23T00:03:11;17.20;99.90
14049;DHT22;7099;53.922;10.728;2022-07-23T00:07:38;17.10;99.90
14049;DHT22;7099;53.922;10.728;2022-07-23T00:12:03;17.10;99.90
14049;DHT22;7099;53.922;10.728;2022-07-23T00:16:29;17.10;99.90
14049;DHT22;7099;53.922;10.728;2022-07-23T00:20:55;17.00;99.90
14049;DHT22;7099;53.922;10.728;2022-07-23T00:25:21;17.00;99.90
14049;DHT22;7099;53.922;10.728;2022-07-23T00:29:54;17.00;99.90
14049;DHT22;7099;53.922;10.728;2022-07-23T00:34:19;17.00;99.90
14049;DHT22;7099;53.922;10.728;2022-07-23T00:38:44;17.00;99.90
14049;DHT22;7099;53.922;10.728;2022-07-23T00:43:10;17.00;99.90
14049;DHT22;7099;53.922;10.728;2022-07-23T00:47:36;17.00;99.90
14049;DHT22;7099;53.922;10.728;2022-07-23T00:52:01;16.90;99.90
14049;DHT22;7099;53.922;10.728;2022-07-23T00:56:27;16.90;99.90
14049;DHT22;7099;53.922;10.728;2022-07-23T01:00:52;16.90;99.90
14049;DHT22;7099;53.922;10.728;2022-07-23T01:05:18;16.90;99.90
14049;DHT22;7099;53.922;10.728;2022-07-23T01:09:47;16.90;99.90
14049;DHT22;7099;53.922;10.728;2022-07-23T01:14:14;16.90;99.90
14049;DHT22;7099;53.922;10.728;2022-07-23T01:18:41;16.80;99.90
14049;DHT22;7099;53.922;10.728;2022-07-23T01:23:06;16.80;99.90
14049;DHT22;7099;53.922;10.728;2022-07-23T01:27:31;16.80;99.90
14049;DHT22;7099;53.922;10.728;2022-07-23T01:31:56;16.80;99.90
14049;DHT22;7099;53.922;10.728;2022-07-23T01:36:22;16.70;99.90
14049;DHT22;7099;53.922;10.728;2022-07-23T01:40:47;16.70;99.90
14049;DHT22;7099;53.922;10.728;2022-07-23T01:45:18;16.70;99.90
14049;DHT22;7099;53.922;10.728;2022-07-23T01:49:43;16.70;99.90
14049;DHT22;7099;53.922;10.728;2022-07-23T01:54:09;16.70;99.90
14049;DHT22;7099;53.922;10.728;2022-07-23T01:58:34;16.80;99.90
14049;DHT22;7099;53.922;10.728;2022-07-23T02:02:59;16.70;99.90
14049;DHT22;7099;53.922;10.728;2022-07-23T02:07:25;16.70;99.90
14049;DHT22;7099;53.922;10.728;2022-07-23T02:11:50;16.70;99.90
14049;DHT22;7099;53.922;10.728;2022-07-23T02:16:15;16.70;99.90
14049;DHT22;7099;53.922;10.728;2022-07-23T02:20:41;16.70;99.90
14049;DHT22;7099;53.922;10.728;2022-07-23T02:25:07;16.70;99.90
14049;DHT22;7099;53.922;10.728;2022-07-23T02:29:34;16.70;99.90
14049;DHT22;7099;53.922;10.728;2022-07-23T02:33:59;16.70;99.90
14049;DHT22;7099;53.922;10.728;2022-07-23T02:38:25;16.70;99.90
14049;DHT22;7099;53.922;10.728;2022-07-23T02:42:50;16.70;99.90
14049;DHT22;7099;53.922;10.728;2022-07-23T02:47:15;16.70;99.90
14049;DHT22;7099;53.922;10.728;2022-07-23T02:51:41;16.70;99.90
14049;DHT22;7099;53.922;10.728;2022-07-23T02:56:06;16.70;99.90
14049;DHT22;7099;53.922;10.728;2022-07-23T03:00:31;16.60;99.90
14049;DHT22;7099;53.922;10.728;2022-07-23T03:04:57;16.70;99.90
14049;DHT22;7099;53.922;10.728;2022-07-23T03:09:22;16.70;99.90
14049;DHT22;7099;53.922;10.728;2022-07-23T03:13:47;16.70;99.90
14049;DHT22;7099;53.922;10.728;2022-07-23T03:18:13;16.70;99.90
14049;DHT22;7099;53.922;10.728;2022-07-23T03:22:38;16.70;99.90
14049;DHT22;7099;53.922;10.728;2022-07-23T03:27:03;16.70;99.90
14049;DHT22;7099;53.922;10.728;2022-07-23T03:31:29;16.70;99.90
14049;DHT22;7099;53.922;10.728;2022-07-23T03:35:56;16.70;99.90
14049;DHT22;7099;53.922;10.728;2022-07-23T03:40:21;16.70;99.90
14049;DHT22;7099;53.922;10.728;2022-07-23T03:44:47;16.70;99.90
14049;DHT22;7099;53.922;10.728;2022-07-23T03:49:12;16.70;99.90
14049;DHT22;7099;53.922;10.728;2022-07-23T03:53:37;16.70;99.90
14049;DHT22;7099;53.922;10.728;2022-07-23T03:58:03;16.70;99.90
14049;DHT22;7099;53.922;10.728;2022-07-23T04:02:28;16.60;99.90
14049;DHT22;7099;53.922;10.728;2022-07-23T04:06:53;16.60;99.90
14049;DHT22;7099;53.922;10.728;2022-07-23T04:11:19;16.60;99.90
14049;DHT22;7099;53.922;10.728;2022-07-23T04:15:44;16.60;99.90
14049;DHT22;7099;53.922;10.728;2022-07-23T04:20:10;16.60;99.90
14049;DHT22;7099;53.922;10.728;2022-07-23T04:24:37;16.70;99.90
14049;DHT22;7099;53.922;10.728;2022-07-23T04:29:02;16.70;99.90
14049;DHT22;7099;53.922;10.728;2022-07-23T04:33:28;16.70;99.90
14049;DHT22;7099;53.922;10.728;2022-07-23T04:37:54;16.80;99.90
14049;DHT22;7099;53.922;10.728;2022-07-23T04:42:19;16.70;99.90
14049;DHT22;7099;53.922;10.728;2022-07-23T04:46:44;16.80;99.90
14049;DHT22;7099;53.922;10.728;2022-07-23T04:51:11;16.80;99.90
14049;DHT22;7099;53.922;10.728;2022-07-23T04:55:36;16.90;99.90
14049;DHT22;7099;53.922;10.728;2022-07-23T05:00:03;16.90;99.90
14049;DHT22;7099;53.922;10.728;2022-07-23T05:04:29;17.00;99.90
14049;DHT22;7099;53.922;10.728;2022-07-23T05:08:54;17.00;99.90
14049;DHT22;7099;53.922;10.728;2022-07-23T05:13:20;17.10;99.90
14049;DHT22;7099;53.922;10.728;2022-07-23T05:17:45;17.10;99.90
14049;DHT22;7099;53.922;10.728;2022-07-23T05:22:11;17.20;99.90
14049;DHT22;7099;53.922;10.728;2022-07-23T05:26:36;17.20;99.90
14049;DHT22;7099;53.922;10.728;2022-07-23T05:31:02;17.20;99.90
14049;DHT22;7099;53.922;10.728;2022-07-23T05:35:28;17.30;99.90
14049;DHT22;7099;53.922;10.728;2022-07-23T05:39:54;17.30;99.90
14049;DHT22;7099;53.922;10.728;2022-07-23T05:44:19;17.40;99.90
14049;DHT22;7099;53.922;10.728;2022-07-23T05:48:45;17.40;99.90
14049;DHT22;7099;53.922;10.728;2022-07-23T05:53:14;17.40;99.90
14049;DHT22;7099;53.922;10.728;2022-07-23T05:57:40;17.40;99.90
14049;DHT22;7099;53.922;10.728;2022-07-23T06:02:06;17.50;99.90
14049;DHT22;7099;53.922;10.728;2022-07-23T06:06:31;17.50;99.90
14049;DHT22;7099;53.922;10.728;2022-07-23T06:10:57;17.50;99.90
14049;DHT22;7099;53.922;10.728;2022-07-23T06:15:22;17.50;99.90
14049;DHT22;7099;53.922;10.728;2022-07-23T06:19:47;17.50;99.90
14049;DHT22;7099;53.922;10.728;2022-07-23T06:24:16;17.50;99.90
14049;DHT22;7099;53.922;10.728;2022-07-23T06:28:41;17.50;99.90
14049;DHT22;7099;53.922;10.728;2022-07-23T06:33:06;17.50;99.90
14049;DHT22;7099;53.922;10.728;2022-07-23T06:37:32;17.50;99.90
14049;DHT22;7099;53.922;10.728;2022-07-23T06:41:57;17.50;99.90
14049;DHT22;7099;53.922;10.728;2022-07-23T06:46:25;17.50;99.90
14049;DHT22;7099;53.922;10.728;2022-07-23T06:50:53;17.50;99.90
14049;DHT22;7099;53.922;10.728;2022-07-23T06:55:19;17.60;99.90
14049;DHT22;7099;53.922;10.728;2022-07-23T06:59:45;17.60;99.90
14049;DHT22;7099;53.922;10.728;2022-07-23T07:04:10;17.60;99.90
14049;DHT22;7099;53.922;10.728;2022-07-23T07:08:35;17.60;99.90
14049;DHT22;7099;53.922;10.728;2022-07-23T07:13:00;17.60;99.90
14049;DHT22;7099;53.922;10.728;2022-07-23T07:17:26;17.60;99.90
14049;DHT22;7099;53.922;10.728;2022-07-23T07:21:51;17.60;99.90
14049;DHT22;7099;53.922;10.728;2022-07-23T07:26:16;17.50;99.90
14049;DHT22;7099;53.922;10.728;2022-07-23T07:30:41;17.50;99.90
14049;DHT22;7099;53.922;10.728;2022-07-23T07:35:07;17.60;99.90
14049;DHT22;7099;53.922;10.728;2022-07-23T07:39:36;17.60;99.90
14049;DHT22;7099;53.922;10.728;2022-07-23T07:44:01;17.80;99.90
14049;DHT22;7099;53.922;10.728;2022-07-23T07:48:27;18.00;99.90
14049;DHT22;7099;53.922;10.728;2022-07-23T07:52:52;18.10;99.90
14049;DHT22;7099;53.922;10.728;2022-07-23T07:57:18;18.30;99.90
14049;DHT22;7099;53.922;10.728;2022-07-23T08:01:43;18.50;99.90
14049;DHT22;7099;53.922;10.728;2022-07-23T08:06:08;18.70;99.90
14049;DHT22;7099;53.922;10.728;2022-07-23T08:10:34;18.80;99.90
14049;DHT22;7099;53.922;10.728;2022-07-23T08:14:59;19.00;99.90
14049;DHT22;7099;53.922;10.728;2022-07-23T08:19:24;19.10;99.90
14049;DHT22;7099;53.922;10.728;2022-07-23T08:23:50;19.20;99.90
14049;DHT22;7099;53.922;10.728;2022-07-23T08:28:15;19.40;99.90
14049;DHT22;7099;53.922;10.728;2022-07-23T08:33:04;19.50;99.90
14049;DHT22;7099;53.922;10.728;2022-07-23T08:37:57;19.70;99.90
14049;DHT22;7099;53.922;10.728;2022-07-23T08:42:23;19.90;99.90
14049;DHT22;7099;53.922;10.728;2022-07-23T08:46:49;20.00;99.90
14049;DHT22;7099;53.922;10.728;2022-07-23T08:51:14;20.10;99.90
14049;DHT22;7099;53.922;10.728;2022-07-23T08:55:47;20.20;99.90
14049;DHT22;7099;53.922;10.728;2022-07-23T09:00:15;20.40;99.90
14049;DHT22;7099;53.922;10.728;2022-07-23T09:04:41;20.50;99.90
14049;DHT22;7099;53.922;10.728;2022-07-23T09:09:17;20.50;99.90
14049;DHT22;7099;53.922;10.728;2022-07-23T09:13:53;20.40;99.90
14049;DHT22;7099;53.922;10.728;2022-07-23T09:18:19;20.50;99.90
14049;DHT22;7099;53.922;10.728;2022-07-23T09:22:46;20.60;99.90
14049;DHT22;7099;53.922;10.728;2022-07-23T09:27:11;20.80;99.90
14049;DHT22;7099;53.922;10.728;2022-07-23T09:36:29;20.70;99.90
14049;DHT22;7099;53.922;10.728;2022-07-23T09:41:10;20.70;99.90
14049;DHT22;7099;53.922;10.728;2022-07-23T09:45:36;20.70;99.90
14049;DHT22;7099;53.922;10.728;2022-07-23T09:50:07;20.50;99.90
14049;DHT22;7099;53.922;10.728;2022-07-23T09:54:37;20.50;99.90
14049;DHT22;7099;53.922;10.728;2022-07-23T09:59:04;20.30;99.90
14049;DHT22;7099;53.922;10.728;2022-07-23T10:03:32;20.20;99.90
14049;DHT22;7099;53.922;10.728;2022-07-23T10:07:59;20.20;99.90
14049;DHT22;7099;53.922;10.728;2022-07-23T10:12:26;20.20;99.90
14049;DHT22;7099;53.922;10.728;2022-07-23T10:16:52;20.20;99.90
14049;DHT22;7099;53.922;10.728;2022-07-23T10:21:30;20.20;99.90
14049;DHT22;7099;53.922;10.728;2022-07-23T10:41:03;20.70;99.90
14049;DHT22;7099;53.922;10.728;2022-07-23T10:45:36;20.60;99.90
14049;DHT22;7099;53.922;10.728;2022-07-23T10:50:25;20.50;99.90
14049;DHT22;7099;53.922;10.728;2022-07-23T10:59:26;20.20;99.90
14049;DHT22;7099;53.922;10.728;2022-07-23T11:03:57;20.20;99.90
14049;DHT22;7099;53.922;10.728;2022-07-23T11:08:25;20.20;99.90
14049;DHT22;7099;53.922;10.728;2022-07-23T11:12:50;20.20;99.90
14049;DHT22;7099;53.922;10.728;2022-07-23T11:17:19;20.20;99.90
14049;DHT22;7099;53.922;10.728;2022-07-23T11:21:46;20.20;99.90
14049;DHT22;7099;53.922;10.728;2022-07-23T11:31:17;20.60;99.90
14049;DHT22;7099;53.922;10.728;2022-07-23T11:35:59;20.70;99.90
14049;DHT22;7099;53.922;10.728;2022-07-23T11:40:27;20.70;99.90
14049;DHT22;7099;53.922;10.728;2022-07-23T11:44:52;20.80;99.90
14049;DHT22;7099;53.922;10.728;2022-07-23T11:49:17;21.10;99.90
14049;DHT22;7099;53.922;10.728;2022-07-23T11:53:45;21.20;99.90
14049;DHT22;7099;53.922;10.728;2022-07-23T11:58:10;21.20;99.90
14049;DHT22;7099;53.922;10.728;2022-07-23T12:02:40;21.20;99.90
14049;DHT22;7099;53.922;10.728;2022-07-23T12:12:01;21.10;99.90
14049;DHT22;7099;53.922;10.728;2022-07-23T12:16:26;21.10;99.90
14049;DHT22;7099;53.922;10.728;2022-07-23T12:20:54;21.20;99.90
14049;DHT22;7099;53.922;10.728;2022-07-23T12:25:25;21.30;99.90
14049;DHT22;7099;53.922;10.728;2022-07-23T12:29:52;21.50;99.90
14049;DHT22;7099;53.922;10.728;2022-07-23T12:34:18;21.70;99.90
14049;DHT22;7099;53.922;10.728;2022-07-23T12:38:49;21.80;99.90
14049;DHT22;7099;53.922;10.728;2022-07-23T12:43:24;21.90;99.90
14049;DHT22;7099;53.922;10.728;2022-07-23T12:48:04;21.80;99.90
14049;DHT22;7099;53.922;10.728;2022-07-23T12:52:33;21.80;99.90
14049;DHT22;7099;53.922;10.728;2022-07-23T12:56:59;21.80;99.90
14049;DHT22;7099;53.922;10.728;2022-07-23T13:01:30;21.90;99.90
14049;DHT22;7099;53.922;10.728;2022-07-23T13:05:59;22.10;99.90
14049;DHT22;7099;53.922;10.728;2022-07-23T13:10:26;22.30;99.90
14049;DHT22;7099;53.922;10.728;2022-07-23T13:14:51;22.50;99.90
14049;DHT22;7099;53.922;10.728;2022-07-23T13:19:17;22.60;99.90
14049;DHT22;7099;53.922;10.728;2022-07-23T13:23:44;22.70;99.90
14049;DHT22;7099;53.922;10.728;2022-07-23T13:28:10;22.60;99.90
14049;DHT22;7099;53.922;10.728;2022-07-23T13:32:36;22.60;99.90
14049;DHT22;7099;53.922;10.728;2022-07-23T13:37:02;22.60;99.90
14049;DHT22;7099;53.922;10.728;2022-07-23T13:41:28;22.70;99.90
14049;DHT22;7099;53.922;10.728;2022-07-23T13:45:54;22.60;99.90
14049;DHT22;7099;53.922;10.728;2022-07-23T13:50:20;22.60;99.90
14049;DHT22;7099;53.922;10.728;2022-07-23T13:54:46;22.60;99.90
14049;DHT22;7099;53.922;10.728;2022-07-23T13:59:11;22.60;99.90
14049;DHT22;7099;53.922;10.728;2022-07-23T14:03:37;22.70;99.90
14049;DHT22;7099;53.922;10.728;2022-07-23T14:08:03;22.80;99.90
14049;DHT22;7099;53.922;10.728;2022-07-23T14:12:29;22.90;99.90
14049;DHT22;7099;53.922;10.728;2022-07-23T14:16:58;22.90;99.90
14049;DHT22;7099;53.922;10.728;2022-07-23T14:21:25;22.90;99.90
14049;DHT22;7099;53.922;10.728;2022-07-23T14:25:51;22.90;99.90
14049;DHT22;7099;53.922;10.728;2022-07-23T14:30:16;22.70;99.90
14049;DHT22;7099;53.922;10.728;2022-07-23T14:34:48;22.50;99.90
14049;DHT22;7099;53.922;10.728;2022-07-23T14:39:13;22.40;99.90
14049;DHT22;7099;53.922;10.728;2022-07-23T14:43:40;22.10;99.90
14049;DHT22;7099;53.922;10.728;2022-07-23T14:48:06;21.90;99.90
14049;DHT22;7099;53.922;10.728;2022-07-23T14:52:32;21.80;99.90
14049;DHT22;7099;53.922;10.728;2022-07-23T14:56:58;21.80;99.90
14049;DHT22;7099;53.922;10.728;2022-07-23T15:01:24;21.80;99.90
14049;DHT22;7099;53.922;10.728;2022-07-23T15:05:50;21.50;99.90
14049;DHT22;7099;53.922;10.728;2022-07-23T15:10:17;21.30;99.90
14049;DHT22;7099;53.922;10.728;2022-07-23T15:14:46;21.30;99.90
14049;DHT22;7099;53.922;10.728;2022-07-23T15:19:11;21.30;99.90
14049;DHT22;7099;53.922;10.728;2022-07-23T15:23:36;21.10;99.90
14049;DHT22;7099;53.922;10.728;2022-07-23T15:28:04;21.00;99.90
14049;DHT22;7099;53.922;10.728;2022-07-23T15:32:50;20.90;99.90
14049;DHT22;7099;53.922;10.728;2022-07-23T15:37:15;20.80;99.90
14049;DHT22;7099;53.922;10.728;2022-07-23T15:41:41;20.80;99.90
14049;DHT22;7099;53.922;10.728;2022-07-23T15:46:07;21.00;99.90
14049;DHT22;7099;53.922;10.728;2022-07-23T15:50:33;21.50;99.90
14049;DHT22;7099;53.922;10.728;2022-07-23T15:54:58;21.50;99.90
14049;DHT22;7099;53.922;10.728;2022-07-23T15:59:23;21.50;99.90
14049;DHT22;7099;53.922;10.728;2022-07-23T16:03:53;21.40;99.90
14049;DHT22;7099;53.922;10.728;2022-07-23T16:08:19;21.30;99.90
14049;DHT22;7099;53.922;10.728;2022-07-23T16:12:44;21.20;99.90
14049;DHT22;7099;53.922;10.728;2022-07-23T16:17:09;21.10;99.90
14049;DHT22;7099;53.922;10.728;2022-07-23T16:21:35;21.20;99.90
14049;DHT22;7099;53.922;10.728;2022-07-23T16:26:00;21.30;99.90
14049;DHT22;7099;53.922;10.728;2022-07-23T16:30:25;21.90;99.90
14049;DHT22;7099;53.922;10.728;2022-07-23T16:34:51;21.90;99.90
14049;DHT22;7099;53.922;10.728;2022-07-23T16:39:17;21.70;99.90
14049;DHT22;7099;53.922;10.728;2022-07-23T16:43:42;21.80;99.90
14049;DHT22;7099;53.922;10.728;2022-07-23T16:48:07;21.70;99.90
14049;DHT22;7099;53.922;10.728;2022-07-23T16:52:33;21.60;99.90
14049;DHT22;7099;53.922;10.728;2022-07-23T16:56:59;21.50;99.90
14049;DHT22;7099;53.922;10.728;2022-07-23T17:01:24;21.50;99.90
14049;DHT22;7099;53.922;10.728;2022-07-23T17:05:50;21.40;99.90
14049;DHT22;7099;53.922;10.728;2022-07-23T17:10:16;21.20;99.90
14049;DHT22;7099;53.922;10.728;2022-07-23T17:14:41;21.20;99.90
14049;DHT22;7099;53.922;10.728;2022-07-23T17:19:07;21.00;99.90
14049;DHT22;7099;53.922;10.728;2022-07-23T17:23:32;20.90;99.90
14049;DHT22;7099;53.922;10.728;2022-07-23T17:27:57;20.90;99.90
14049;DHT22;7099;53.922;10.728;2022-07-23T17:32:23;20.80;99.90
14049;DHT22;7099;53.922;10.728;2022-07-23T17:36:48;20.80;99.90
14049;DHT22;7099;53.922;10.728;2022-07-23T17:41:15;20.60;99.90
14049;DHT22;7099;53.922;10.728;2022-07-23T17:45:41;20.50;99.90
14049;DHT22;7099;53.922;10.728;2022-07-23T17:50:08;20.50;99.90
14049;DHT22;7099;53.922;10.728;2022-07-23T17:54:34;20.50;99.90
14049;DHT22;7099;53.922;10.728;2022-07-23T17:58:59;20.40;99.90
14049;DHT22;7099;53.922;10.728;2022-07-23T18:03:25;20.30;99.90
14049;DHT22;7099;53.922;10.728;2022-07-23T18:07:50;20.20;99.90
14049;DHT22;7099;53.922;10.728;2022-07-23T18:12:16;20.20;99.90
14049;DHT22;7099;53.922;10.728;2022-07-23T18:16:42;20.10;99.90
14049;DHT22;7099;53.922;10.728;2022-07-23T18:21:07;20.20;99.90
14049;DHT22;7099;53.922;10.728;2022-07-23T18:25:33;20.10;99.90
14049;DHT22;7099;53.922;10.728;2022-07-23T18:29:58;20.00;99.90
14049;DHT22;7099;53.922;10.728;2022-07-23T18:34:23;20.00;99.90
14049;DHT22;7099;53.922;10.728;2022-07-23T18:38:49;20.00;99.90
14049;DHT22;7099;53.922;10.728;2022-07-23T18:43:22;19.80;99.90
14049;DHT22;7099;53.922;10.728;2022-07-23T18:47:48;19.80;99.90
14049;DHT22;7099;53.922;10.728;2022-07-23T18:52:13;19.70;99.90
14049;DHT22;7099;53.922;10.728;2022-07-23T18:56:39;19.70;99.90
14049;DHT22;7099;53.922;10.728;2022-07-23T19:01:04;19.70;99.90
14049;DHT22;7099;53.922;10.728;2022-07-23T19:05:32;19.60;99.90
14049;DHT22;7099;53.922;10.728;2022-07-23T19:09:57;19.60;99.90
14049;DHT22;7099;53.922;10.728;2022-07-23T19:14:22;19.50;99.90
14049;DHT22;7099;53.922;10.728;2022-07-23T19:18:48;19.50;99.90
14049;DHT22;7099;53.922;10.728;2022-07-23T19:23:13;19.50;99.90
14049;DHT22;7099;53.922;10.728;2022-07-23T19:27:38;19.40;99.90
14049;DHT22;7099;53.922;10.728;2022-07-23T19:32:05;19.30;99.90
14049;DHT22;7099;53.922;10.728;2022-07-23T19:36:31;19.30;99.90
14049;DHT22;7099;53.922;10.728;2022-07-23T19:40:56;19.30;99.90
14049;DHT22;7099;53.922;10.728;2022-07-23T19:45:21;19.20;99.90
14049;DHT22;7099;53.922;10.728;2022-07-23T19:49:47;19.20;99.90
14049;DHT22;7099;53.922;10.728;2022-07-23T19:54:12;19.10;99.90
14049;DHT22;7099;53.922;10.728;2022-07-23T19:58:38;19.00;99.90
14049;DHT22;7099;53.922;10.728;2022-07-23T20:03:04;18.90;99.90
14049;DHT22;7099;53.922;10.728;2022-07-23T20:07:29;18.80;99.90
14049;DHT22;7099;53.922;10.728;2022-07-23T20:11:55;18.80;99.90
14049;DHT22;7099;53.922;10.728;2022-07-23T20:16:20;18.70;99.90
14049;DHT22;7099;53.922;10.728;2022-07-23T20:20:45;18.70;99.90
14049;DHT22;7099;53.922;10.728;2022-07-23T20:25:11;18.70;99.90
14049;DHT22;7099;53.922;10.728;2022-07-23T20:29:36;18.60;99.90
14049;DHT22;7099;53.922;10.728;2022-07-23T20:34:01;18.50;99.90
14049;DHT22;7099;53.922;10.728;2022-07-23T20:38:27;18.50;99.90
14049;DHT22;7099;53.922;10.728;2022-07-23T20:42:52;18.40;99.90
14049;DHT22;7099;53.922;10.728;2022-07-23T20:47:17;18.40;99.90
14049;DHT22;7099;53.922;10.728;2022-07-23T20:51:44;18.30;99.90
14049;DHT22;7099;53.922;10.728;2022-07-23T20:56:10;18.30;99.90
14049;DHT22;7099;53.922;10.728;2022-07-23T21:00:35;18.20;99.90
14049;DHT22;7099;53.922;10.728;2022-07-23T21:05:01;18.10;99.90
14049;DHT22;7099;53.922;10.728;2022-07-23T21:09:26;18.00;99.90
14049;DHT22;7099;53.922;10.728;2022-07-23T21:13:51;17.90;99.90
14049;DHT22;7099;53.922;10.728;2022-07-23T21:18:17;17.80;99.90
14049;DHT22;7099;53.922;10.728;2022-07-23T21:22:42;17.70;99.90
14049;DHT22;7099;53.922;10.728;2022-07-23T21:27:09;17.60;99.90
14049;DHT22;7099;53.922;10.728;2022-07-23T21:31:36;17.50;99.90
14049;DHT22;7099;53.922;10.728;2022-07-23T21:36:02;17.40;99.90
14049;DHT22;7099;53.922;10.728;2022-07-23T21:40:28;17.30;99.90
14049;DHT22;7099;53.922;10.728;2022-07-23T21:44:53;17.20;99.90
14049;DHT22;7099;53.922;10.728;2022-07-23T21:49:19;17.20;99.90
14049;DHT22;7099;53.922;10.728;2022-07-23T21:53:44;17.00;99.90
14049;DHT22;7099;53.922;10.728;2022-07-23T21:58:10;16.90;99.90
14049;DHT22;7099;53.922;10.728;2022-07-23T22:02:35;16.80;99.90
14049;DHT22;7099;53.922;10.728;2022-07-23T22:07:00;16.70;99.90
14049;DHT22;7099;53.922;10.728;2022-07-23T22:11:26;16.60;99.90
14049;DHT22;7099;53.922;10.728;2022-07-23T22:15:51;16.50;99.90
14049;DHT22;7099;53.922;10.728;2022-07-23T22:20:17;16.40;99.90
14049;DHT22;7099;53.922;10.728;2022-07-23T22:24:42;16.30;99.90
14049;DHT22;7099;53.922;10.728;2022-07-23T22:29:08;16.20;99.90
14049;DHT22;7099;53.922;10.728;2022-07-23T22:33:33;16.10;99.90
14049;DHT22;7099;53.922;10.728;2022-07-23T22:37:58;16.10;99.90
14049;DHT22;7099;53.922;10.728;2022-07-23T22:42:24;15.90;99.90
14049;DHT22;7099;53.922;10.728;2022-07-23T22:46:49;15.90;99.90
14049;DHT22;7099;53.922;10.728;2022-07-23T22:51:14;15.80;99.90
14049;DHT22;7099;53.922;10.728;2022-07-23T22:55:43;15.70;99.90
14049;DHT22;7099;53.922;10.728;2022-07-23T23:00:09;15.60;99.90
14049;DHT22;7099;53.922;10.728;2022-07-23T23:04:43;15.50;99.90
14049;DHT22;7099;53.922;10.728;2022-07-23T23:09:09;15.40;99.90
14049;DHT22;7099;53.922;10.728;2022-07-23T23:13:34;15.30;99.90
14049;DHT22;7099;53.922;10.728;2022-07-23T23:17:59;15.30;99.90
14049;DHT22;7099;53.922;10.728;2022-07-23T23:22:24;15.20;99.90
14049;DHT22;7099;53.922;10.728;2022-07-23T23:26:50;15.10;99.90
14049;DHT22;7099;53.922;10.728;2022-07-23T23:31:15;15.00;99.90
14049;DHT22;7099;53.922;10.728;2022-07-23T23:35:40;14.90;99.90
14049;DHT22;7099;53.922;10.728;2022-07-23T23:40:07;14.80;99.90
14049;DHT22;7099;53.922;10.728;2022-07-23T23:44:33;14.80;99.90
14049;DHT22;7099;53.922;10.728;2022-07-23T23:48:58;14.70;99.90
14049;DHT22;7099;53.922;10.728;2022-07-23T23:53:23;14.60;99.90
14049;DHT22;7099;53.922;10.728;2022-07-23T23:57:49;14.60;99.90
